createdAt,value
2023-01-17T00:04:23.829Z,81.39
2023-01-17T00:09:23.822Z,81.70
2023-01-17T00:14:23.447Z,81.49
2023-01-17T00:19:23.396Z,81.39
2023-01-17T00:24:23.319Z,81.59
2023-01-17T00:29:23.260Z,81.64
2023-01-17T00:34:23.188Z,81.84
2023-01-17T00:39:23.131Z,81.84
2023-01-17T00:44:23.059Z,81.94
2023-01-17T00:49:23.018Z,81.94
2023-01-17T00:54:22.926Z,81.84
2023-01-17T00:59:22.876Z,81.73
2023-01-17T01:04:22.811Z,81.32
2023-01-17T01:09:22.744Z,80.70
2023-01-17T01:14:22.674Z,80.46
2023-01-17T01:19:22.613Z,79.94
2023-01-17T01:24:22.536Z,79.29
2023-01-17T01:29:22.476Z,80.63
2023-01-17T01:34:22.411Z,82.08
2023-01-17T01:39:22.343Z,82.73
2023-01-17T01:44:22.276Z,82.63
2023-01-17T01:49:22.211Z,84.18
2023-01-17T01:54:22.146Z,83.56
2023-01-17T01:59:22.081Z,82.63
2023-01-17T02:04:22.021Z,82.84
2023-01-17T02:09:21.937Z,83.29
2023-01-17T02:14:21.891Z,82.56
2023-01-17T02:19:21.812Z,83.29
2023-01-17T02:24:21.767Z,83.81
2023-01-17T02:29:21.678Z,84.22
2023-01-17T02:34:21.621Z,84.11
2023-01-17T02:39:21.546Z,85.57
2023-01-17T02:44:21.494Z,86.49
2023-01-17T02:49:21.425Z,86.95
2023-01-17T02:54:21.360Z,86.95
2023-01-17T02:59:21.292Z,87.06
2023-01-17T03:04:21.224Z,87.26
2023-01-17T03:09:21.165Z,86.43
2023-01-17T03:14:21.096Z,86.12
2023-01-17T03:19:21.028Z,85.40
2023-01-17T03:24:20.966Z,85.29
2023-01-17T03:29:20.892Z,84.68
2023-01-17T03:34:20.832Z,85.08
2023-01-17T03:39:20.765Z,84.68
2023-01-17T03:44:20.698Z,84.36
2023-01-17T03:49:20.623Z,84.36
2023-01-17T03:54:20.664Z,84.47
2023-01-17T03:59:20.640Z,84.16
2023-01-17T04:04:20.744Z,84.16
2023-01-17T04:09:20.651Z,83.33
2023-01-17T04:14:20.642Z,83.33
2023-01-17T04:19:20.669Z,83.12
2023-01-17T04:24:20.661Z,83.12
2023-01-17T04:29:20.091Z,83.02
2023-01-17T04:34:20.031Z,82.70
2023-01-17T04:39:19.957Z,82.70
2023-01-17T04:44:19.908Z,82.91
2023-01-17T04:49:19.828Z,82.85
2023-01-17T04:54:19.777Z,83.05
2023-01-17T04:59:19.710Z,82.75
2023-01-17T05:04:19.639Z,82.39
2023-01-17T05:09:19.557Z,82.50
2023-01-17T05:14:19.506Z,82.09
2023-01-17T05:19:20.986Z,82.18
2023-01-17T05:24:19.368Z,82.54
2023-01-17T05:29:19.289Z,81.92
2023-01-17T05:34:19.231Z,81.92
2023-01-17T05:39:19.163Z,82.33
2023-01-17T05:44:19.101Z,82.37
2023-01-17T05:49:19.030Z,82.47
2023-01-17T05:54:18.991Z,82.26
2023-01-17T05:59:28.700Z,82.20
2023-01-17T06:04:19.897Z,81.78
2023-01-17T06:09:18.756Z,80.40
2023-01-17T06:14:18.711Z,79.77
2023-01-17T06:19:18.622Z,79.02
2023-01-17T06:24:18.573Z,78.91
2023-01-17T06:29:18.495Z,78.39
2023-01-17T06:34:18.440Z,78.19
2023-01-17T06:39:18.355Z,78.08
2023-01-17T06:44:18.307Z,78.95
2023-01-17T06:49:18.221Z,78.22
2023-01-17T06:54:18.171Z,78.12
2023-01-17T06:59:18.087Z,78.57
2023-01-17T07:04:18.040Z,78.36
2023-01-17T07:09:17.954Z,78.36
2023-01-17T07:14:17.905Z,78.50
2023-01-17T07:19:17.820Z,78.40
2023-01-17T07:24:17.763Z,78.09
2023-01-17T07:29:17.688Z,77.57
2023-01-17T07:34:17.629Z,77.47
2023-01-17T07:39:17.559Z,77.36
2023-01-17T07:44:17.502Z,77.36
2023-01-17T07:49:17.441Z,76.60
2023-01-17T07:54:17.364Z,73.04
2023-01-17T07:59:17.289Z,69.06
2023-01-17T08:04:17.240Z,68.75
2023-01-17T08:09:17.155Z,70.81
2023-01-17T08:14:17.110Z,71.87
2023-01-17T08:19:17.027Z,73.35
2023-01-17T08:24:16.990Z,74.84
2023-01-17T08:29:16.928Z,74.46
2023-01-17T08:34:16.849Z,75.81
2023-01-17T08:39:16.767Z,82.44
2023-01-17T08:44:16.712Z,77.01
2023-01-17T08:49:16.641Z,64.45
2023-01-17T08:54:16.636Z,58.40
2023-01-17T08:59:16.508Z,54.13
2023-01-17T09:04:16.501Z,60.91
2023-01-17T09:09:16.370Z,65.04
2023-01-17T09:14:16.312Z,65.80
2023-01-17T09:19:16.236Z,59.00
2023-01-17T09:24:16.177Z,52.90
2023-01-17T09:29:16.108Z,49.42
2023-01-17T09:34:16.047Z,46.20
2023-01-17T09:39:15.991Z,43.22
2023-01-17T09:44:15.911Z,41.13
2023-01-17T09:49:15.835Z,40.91
2023-01-17T09:54:15.775Z,50.19
2023-01-17T09:59:18.791Z,56.51
2023-01-17T10:04:15.761Z,60.01
2023-01-17T10:09:15.576Z,62.57
2023-01-17T10:14:15.534Z,64.17
2023-01-17T10:19:15.443Z,65.00
2023-01-17T10:24:15.377Z,64.31
2023-01-17T10:29:15.307Z,64.92
2023-01-17T10:34:15.245Z,65.58
2023-01-17T10:39:15.179Z,65.96
2023-01-17T10:44:15.106Z,66.13
2023-01-17T10:49:15.033Z,66.04
2023-01-17T10:54:14.977Z,65.55
2023-01-17T10:59:14.906Z,61.43
2023-01-17T11:04:14.841Z,59.77
2023-01-17T11:09:14.777Z,53.33
2023-01-17T11:14:14.707Z,50.15
2023-01-17T11:19:14.680Z,47.61
2023-01-17T11:24:14.574Z,45.72
2023-01-17T11:29:14.510Z,44.05
2023-01-17T11:34:14.439Z,43.42
2023-01-17T11:39:14.388Z,42.21
2023-01-17T11:44:14.310Z,41.92
2023-01-17T11:49:14.263Z,43.75
2023-01-17T11:54:14.179Z,45.03
2023-01-17T11:59:14.115Z,47.01
2023-01-17T12:04:14.068Z,50.42
2023-01-17T12:09:13.974Z,52.77
2023-01-17T12:14:13.919Z,52.79
2023-01-17T12:19:13.851Z,52.97
2023-01-17T12:24:13.793Z,53.94
2023-01-17T12:29:13.705Z,56.15
2023-01-17T12:34:13.649Z,57.51
2023-01-17T12:39:13.571Z,56.07
2023-01-17T12:44:13.518Z,57.97
2023-01-17T12:49:13.449Z,58.39
2023-01-17T12:54:13.379Z,59.40
2023-01-17T12:59:13.330Z,62.55
2023-01-17T13:04:13.255Z,63.41
2023-01-17T13:09:13.183Z,65.19
2023-01-17T13:14:13.116Z,66.57
2023-01-17T13:19:13.049Z,66.70
2023-01-17T13:24:13.122Z,66.60
2023-01-17T13:29:12.907Z,64.94
2023-01-17T13:34:12.843Z,64.60
2023-01-17T13:39:12.769Z,65.64
2023-01-17T13:44:12.707Z,66.39
2023-01-17T13:49:12.636Z,66.39
2023-01-17T13:54:12.575Z,65.88
2023-01-17T13:59:12.501Z,66.32
2023-01-17T14:04:12.443Z,66.52
2023-01-17T14:09:12.398Z,66.42
2023-01-17T14:14:12.327Z,66.45
2023-01-17T14:19:12.268Z,66.66
2023-01-17T14:24:12.349Z,66.66
2023-01-17T14:29:12.119Z,67.73
2023-01-17T14:34:12.055Z,67.41
2023-01-17T14:39:11.986Z,68.04
2023-01-17T14:44:11.932Z,68.14
2023-01-17T14:49:11.845Z,68.48
2023-01-17T14:54:11.811Z,68.79
2023-01-17T14:59:11.714Z,68.90
2023-01-17T15:04:11.668Z,68.90
2023-01-17T15:09:11.581Z,69.45
2023-01-17T15:14:11.541Z,70.90
2023-01-17T15:19:11.447Z,72.28
2023-01-17T15:24:11.392Z,73.46
2023-01-17T15:29:11.312Z,74.49
2023-01-17T15:34:11.265Z,74.63
2023-01-17T15:39:11.177Z,74.98
2023-01-17T15:44:11.128Z,74.46
2023-01-17T15:49:12.286Z,74.15
2023-01-17T15:54:10.995Z,74.80
2023-01-17T15:59:10.916Z,75.25
2023-01-17T16:04:12.916Z,76.39
2023-01-17T16:09:10.808Z,76.01
2023-01-17T16:14:10.723Z,76.84
2023-01-17T16:19:10.671Z,77.50
2023-01-17T16:24:10.589Z,78.24
2023-01-17T16:29:10.544Z,78.65
2023-01-17T16:34:10.456Z,79.94
2023-01-17T16:39:10.402Z,82.44
2023-01-17T16:44:10.332Z,79.62
2023-01-17T16:49:10.271Z,79.76
2023-01-17T16:54:10.201Z,79.45
2023-01-17T16:59:10.144Z,79.69
2023-01-17T17:04:10.087Z,80.01
2023-01-17T17:09:10.021Z,81.29
2023-01-17T17:14:09.947Z,81.61
2023-01-17T17:19:09.887Z,81.75
2023-01-17T17:24:09.815Z,82.37
2023-01-17T17:29:09.757Z,82.52
2023-01-17T17:34:09.681Z,82.73
2023-01-17T17:39:09.642Z,82.94
2023-01-17T17:44:09.556Z,82.83
2023-01-17T17:49:09.502Z,82.94
2023-01-17T17:54:09.421Z,83.39
2023-01-17T17:59:09.415Z,83.04
2023-01-17T18:04:09.303Z,83.08
2023-01-17T18:09:09.246Z,83.29
2023-01-17T18:14:09.164Z,83.60
2023-01-17T18:19:09.111Z,84.12
2023-01-17T18:24:09.029Z,84.16
2023-01-17T18:29:08.982Z,84.06
2023-01-17T18:34:08.905Z,84.02
2023-01-17T18:39:08.847Z,83.70
2023-01-17T18:44:08.772Z,83.91
2023-01-17T18:49:08.713Z,83.50
2023-01-17T18:54:08.695Z,84.02
2023-01-17T18:59:08.594Z,83.70
2023-01-17T19:04:08.573Z,83.50
2023-01-17T19:09:08.450Z,83.60
2023-01-17T19:14:08.376Z,83.95
2023-01-17T19:19:08.329Z,84.06
2023-01-17T19:24:08.248Z,84.37
2023-01-17T19:29:08.200Z,84.83
2023-01-17T19:34:08.160Z,85.35
2023-01-17T19:39:08.068Z,85.80
2023-01-17T19:44:07.997Z,85.60
2023-01-17T19:49:07.959Z,85.70
2023-01-17T19:54:07.862Z,85.80
2023-01-17T19:59:07.814Z,85.91
2023-01-17T20:04:07.737Z,86.12
2023-01-17T20:09:07.674Z,86.54
2023-01-17T20:14:07.612Z,86.64
2023-01-17T20:19:07.537Z,86.64
2023-01-17T20:24:07.477Z,86.43
2023-01-17T20:29:07.444Z,86.54
2023-01-17T20:34:07.368Z,86.54
2023-01-17T20:39:07.280Z,86.43
2023-01-17T20:44:07.237Z,86.54
2023-01-17T20:49:07.166Z,86.54
2023-01-17T20:54:07.086Z,86.54
2023-01-17T20:59:07.030Z,86.89
2023-01-17T21:04:06.955Z,87.31
2023-01-17T21:09:06.893Z,87.73
2023-01-17T21:14:06.819Z,87.98
2023-01-17T21:19:06.766Z,88.08
2023-01-17T21:24:06.704Z,88.08
2023-01-17T21:29:06.633Z,88.08
2023-01-17T21:34:06.573Z,88.08
2023-01-17T21:39:06.508Z,88.18
2023-01-17T21:44:06.444Z,88.08
2023-01-17T21:49:06.379Z,88.08
2023-01-17T21:54:06.334Z,87.87
2023-01-17T21:59:06.252Z,87.98
2023-01-17T22:04:06.187Z,87.66
2023-01-17T22:09:06.130Z,88.08
2023-01-17T22:14:06.051Z,88.33
2023-01-17T22:19:05.990Z,88.75
2023-01-17T22:24:05.922Z,89.06
2023-01-17T22:29:05.857Z,89.59
2023-01-17T22:34:05.785Z,89.17
2023-01-17T22:39:05.730Z,89.48
2023-01-17T22:44:05.658Z,90.11
2023-01-17T22:49:05.605Z,90.00
2023-01-17T22:54:05.536Z,90.21
2023-01-17T22:59:05.469Z,91.57
2023-01-17T23:04:05.400Z,91.79
2023-01-17T23:09:05.339Z,91.36
2023-01-17T23:14:05.274Z,91.16
2023-01-17T23:19:05.201Z,91.36
2023-01-17T23:24:05.145Z,91.36
2023-01-17T23:29:05.074Z,91.32
2023-01-17T23:34:05.011Z,91.32
2023-01-17T23:39:04.939Z,91.43
2023-01-17T23:44:04.884Z,91.79
2023-01-17T23:49:04.809Z,92.37
2023-01-17T23:54:04.751Z,92.52
2023-01-17T23:59:04.688Z,92.30
